Terminal Aerodrome Forecast
Issued by NWS Austin/San Antonio, TX

Home | Current Version | Previous Version | Text Only | Print | Product List | Glossary On
Versions: 1 2 3 4 5 6 7 8 9 10 11 12 13 14 15 16 17 18 19 20 21 22 23 24 25 26 27 28 29 30 31 32
393
FTUS44 KEWX 311933 AAA
TAFSAT
TAF AMD
KSAT 311933Z 3120/0124 15006KT P6SM BKN020 BKN040
      TEMPO 3120/3122 VRB20G30KT 1/2SM +TSRA BKN020CB
     FM312200 13009KT P6SM BKN035 BKN050 BKN250
      TEMPO 3122/0102 VRB15G25KT 4SM TSRA BR BKN035CB
     FM010600 14003KT P6SM OVC015
     FM011000 13003KT 5SM BR VCSH OVC007=

USA.gov is the U.S. government's official web portal to all federal, state and local government web resources and services.